Time;durP1;ratioP1;P1;durP2;ratioP2;P2;SDS_P1;SDS_P2;PMS_P1;PMS_P2;Temp;Humidity;BMP_temperature;BMP_pressure;BME280_temperature;BME280_humidity;BME280_pressure;Samples;Min_cycle;Max_cycle;Signal;HPM_P1;HPM_P2
2022/08/29 00:00:34;;;;;;;5.67;2.97;;;13.70;99.90;;;;;;5013872;28;20180;-78
2022/08/29 00:03:00;;;;;;;5.83;2.50;;;13.80;99.90;;;;;;5013819;28;20173;-79
2022/08/29 00:05:33;;;;;;;5.37;2.40;;;14.10;99.90;;;;;;5014046;28;20557;-79
2022/08/29 00:08:00;;;;;;;7.57;2.50;;;14.00;99.90;;;;;;5015479;28;20582;-79
2022/08/29 00:10:27;;;;;;;5.53;2.60;;;14.00;99.90;;;;;;5017987;28;20288;-78
2022/08/29 00:12:53;;;;;;;6.63;2.60;;;13.90;99.90;;;;;;5017709;28;20617;-80
2022/08/29 00:15:19;;;;;;;10.87;3.60;;;13.70;99.90;;;;;;5017924;28;20255;-78
2022/08/29 00:17:45;;;;;;;9.80;2.60;;;13.60;99.90;;;;;;5017816;28;20220;-80
2022/08/29 00:20:15;;;;;;;7.67;2.70;;;13.40;99.90;;;;;;5017856;28;20210;-79
2022/08/29 00:22:42;;;;;;;5.37;2.40;;;13.20;99.90;;;;;;5017357;28;20170;-78
2022/08/29 00:25:09;;;;;;;9.03;3.00;;;13.20;99.90;;;;;;5017047;28;20580;-78
2022/08/29 00:27:35;;;;;;;8.33;2.40;;;13.30;99.90;;;;;;5016788;28;20221;-78
2022/08/29 00:30:00;;;;;;;6.23;2.70;;;13.20;99.90;;;;;;5017442;28;20233;-78
2022/08/29 00:32:33;;;;;;;6.07;2.30;;;13.20;99.90;;;;;;5017115;28;20167;-78
2022/08/29 00:35:20;;;;;;;7.13;2.67;;;13.30;99.90;;;;;;5017141;28;20572;-78
2022/08/29 00:37:46;;;;;;;6.90;2.50;;;13.20;99.90;;;;;;5017106;28;20190;-78
2022/08/29 00:40:16;;;;;;;6.73;2.80;;;13.30;99.90;;;;;;5016407;28;20681;-78
2022/08/29 00:42:41;;;;;;;7.90;2.50;;;13.30;99.90;;;;;;5016465;28;20174;-78
2022/08/29 00:45:10;;;;;;;4.93;2.67;;;13.20;99.90;;;;;;5016665;28;20228;-78
2022/08/29 00:47:40;;;;;;;5.17;2.60;;;13.10;99.90;;;;;;5016318;28;20698;-78
2022/08/29 00:50:08;;;;;;;6.90;2.70;;;12.90;99.90;;;;;;5016444;28;20190;-78
2022/08/29 00:52:41;;;;;;;9.70;2.40;;;13.00;99.90;;;;;;5016052;28;20214;-78
2022/08/29 00:55:12;;;;;;;4.07;2.57;;;12.90;99.90;;;;;;5016945;28;20224;-78
2022/08/29 00:57:41;;;;;;;4.63;2.70;;;12.70;99.90;;;;;;5034194;28;20221;-78
2022/08/29 01:00:08;;;;;;;6.03;2.70;;;12.70;99.90;;;;;;5032933;28;20622;-78
2022/08/29 01:02:33;;;;;;;7.20;2.60;;;12.90;99.90;;;;;;5015547;28;20194;-78
2022/08/29 01:04:59;;;;;;;8.03;2.53;;;12.90;99.90;;;;;;5015809;28;20174;-78
2022/08/29 01:07:25;;;;;;;4.43;2.47;;;12.90;99.90;;;;;;5016144;28;20225;-78
2022/08/29 01:09:52;;;;;;;7.93;2.90;;;12.70;99.90;;;;;;5016491;28;20197;-78
2022/08/29 01:12:20;;;;;;;7.57;2.83;;;12.90;99.90;;;;;;5034281;28;20546;-78
2022/08/29 01:15:00;;;;;;;7.70;2.80;;;12.90;99.90;;;;;;5016369;28;20342;-78
2022/08/29 01:17:31;;;;;;;7.03;3.17;;;12.90;99.90;;;;;;5016547;28;20593;-78
2022/08/29 01:20:09;;;;;;;5.47;2.43;;;12.80;99.90;;;;;;5015292;28;20171;-78
2022/08/29 01:22:46;;;;;;;4.23;2.27;;;12.90;99.90;;;;;;5016304;28;20333;-78
2022/08/29 01:25:16;;;;;;;8.37;3.43;;;12.90;99.90;;;;;;5016634;28;20166;-78
2022/08/29 01:27:46;;;;;;;6.20;3.00;;;12.90;99.90;;;;;;5016027;28;20183;-78
2022/08/29 01:30:14;;;;;;;6.07;2.67;;;13.00;99.90;;;;;;5016411;28;20193;-78
2022/08/29 01:32:40;;;;;;;7.47;2.87;;;13.10;99.90;;;;;;5015857;28;20256;-78
2022/08/29 01:35:07;;;;;;;10.60;2.97;;;13.20;99.90;;;;;;5016197;28;20174;-78
2022/08/29 01:37:35;;;;;;;8.37;3.00;;;13.00;99.90;;;;;;5033750;28;20273;-78
2022/08/29 01:40:01;;;;;;;7.43;2.90;;;13.00;99.90;;;;;;5015583;28;20166;-78
2022/08/29 01:42:27;;;;;;;8.23;3.03;;;12.90;99.90;;;;;;5016052;28;20170;-78
2022/08/29 01:44:59;;;;;;;9.13;2.90;;;12.60;99.90;;;;;;5016361;28;20174;-78
2022/08/29 01:47:28;;;;;;;9.87;3.27;;;12.70;99.90;;;;;;5031625;22;20232;-80
2022/08/29 01:49:54;;;;;;;6.73;3.10;;;12.80;99.90;;;;;;5017597;28;20180;-79
2022/08/29 01:52:20;;;;;;;10.87;2.77;;;12.70;99.90;;;;;;5017379;28;20586;-81
2022/08/29 01:54:45;;;;;;;9.67;3.00;;;12.80;99.90;;;;;;5017746;28;20821;-80
2022/08/29 01:57:13;;;;;;;6.00;2.60;;;12.70;99.90;;;;;;5017108;28;20190;-80
2022/08/29 01:59:39;;;;;;;7.63;3.40;;;12.60;99.90;;;;;;5013848;28;20170;-80
2022/08/29 02:02:10;;;;;;;7.57;2.80;;;12.70;99.90;;;;;;5016788;28;20193;-81
2022/08/29 02:04:39;;;;;;;6.53;3.10;;;12.70;99.90;;;;;;5017754;28;20642;-80
2022/08/29 02:07:05;;;;;;;10.27;3.10;;;12.60;99.90;;;;;;5017640;28;20247;-80
2022/08/29 02:09:31;;;;;;;6.60;3.03;;;12.60;99.90;;;;;;5017684;28;20162;-80
2022/08/29 02:11:59;;;;;;;8.00;3.17;;;12.50;99.90;;;;;;5019107;28;20198;-81
2022/08/29 02:14:25;;;;;;;11.23;3.20;;;12.40;99.90;;;;;;5018472;28;20643;-80
2022/08/29 02:16:50;;;;;;;7.40;3.23;;;12.30;99.90;;;;;;5016923;28;20196;-79
2022/08/29 02:19:17;;;;;;;11.53;3.30;;;12.40;99.90;;;;;;5017566;28;20629;-79
2022/08/29 02:21:43;;;;;;;7.67;3.13;;;12.40;99.90;;;;;;5017859;28;20174;-80
2022/08/29 02:24:09;;;;;;;7.07;2.60;;;12.50;99.90;;;;;;5016663;28;20189;-79
2022/08/29 02:26:35;;;;;;;12.03;3.00;;;12.30;99.90;;;;;;5016218;28;20289;-79
2022/08/29 02:29:00;;;;;;;8.27;2.93;;;12.30;99.90;;;;;;5016421;28;20591;-80
2022/08/29 02:31:27;;;;;;;6.63;2.67;;;12.30;99.90;;;;;;5015809;28;20198;-79
2022/08/29 02:33:53;;;;;;;8.07;3.07;;;12.40;99.90;;;;;;5017083;28;20185;-79
2022/08/29 02:36:20;;;;;;;9.37;3.23;;;12.30;99.90;;;;;;5016991;28;20190;-78
2022/08/29 02:38:47;;;;;;;9.13;3.20;;;12.20;99.90;;;;;;5016656;28;20175;-80
2022/08/29 02:41:12;;;;;;;6.03;3.33;;;12.20;99.90;;;;;;5016601;28;20177;-79
2022/08/29 02:43:38;;;;;;;7.80;3.20;;;12.20;99.90;;;;;;5016749;28;20182;-79
2022/08/29 02:46:04;;;;;;;7.63;3.00;;;12.20;99.90;;;;;;5015887;28;20210;-78
2022/08/29 02:48:30;;;;;;;3.73;2.70;;;12.20;99.90;;;;;;5016455;28;20240;-80
2022/08/29 02:50:59;;;;;;;6.63;2.87;;;12.20;99.90;;;;;;5016349;28;20218;-80
2022/08/29 02:53:28;;;;;;;8.27;3.00;;;12.10;99.90;;;;;;5017830;28;20261;-80
2022/08/29 02:55:54;;;;;;;5.00;2.67;;;12.00;99.90;;;;;;5020638;28;20205;-80
2022/08/29 02:58:21;;;;;;;6.53;3.10;;;12.10;99.90;;;;;;5019941;28;20174;-79
2022/08/29 03:00:47;;;;;;;8.60;3.30;;;12.20;99.90;;;;;;5022108;28;20176;-79
2022/08/29 03:03:13;;;;;;;3.90;2.70;;;12.20;99.90;;;;;;5023213;28;20178;-81
2022/08/29 03:05:39;;;;;;;6.30;2.70;;;12.20;99.90;;;;;;5022438;28;20180;-81
2022/08/29 03:08:12;;;;;;;9.50;3.63;;;12.10;99.90;;;;;;5022438;28;20183;-80
2022/08/29 03:10:39;;;;;;;5.47;2.90;;;12.20;99.90;;;;;;5022152;28;20749;-79
2022/08/29 03:13:06;;;;;;;9.33;2.80;;;12.10;99.90;;;;;;5022470;28;20176;-82
2022/08/29 03:15:31;;;;;;;5.43;2.70;;;12.00;99.90;;;;;;5021829;28;20169;-80
2022/08/29 03:17:57;;;;;;;7.40;3.30;;;11.90;99.90;;;;;;5021577;28;20639;-81
2022/08/29 03:20:23;;;;;;;7.07;3.20;;;11.80;99.90;;;;;;5022715;28;20174;-81
2022/08/29 03:22:50;;;;;;;5.87;2.90;;;11.90;99.90;;;;;;5021434;28;20164;-79
2022/08/29 03:25:16;;;;;;;6.03;3.27;;;11.70;99.90;;;;;;5022146;28;20186;-82
2022/08/29 03:27:42;;;;;;;5.50;2.90;;;11.80;99.90;;;;;;5022256;28;20197;-80
2022/08/29 03:30:11;;;;;;;9.03;3.43;;;11.70;99.90;;;;;;5021725;28;20559;-80
2022/08/29 03:32:38;;;;;;;6.80;2.73;;;11.70;99.90;;;;;;5022998;28;20172;-79
2022/08/29 03:35:04;;;;;;;5.37;2.80;;;11.80;99.90;;;;;;5022768;28;20177;-80
2022/08/29 03:37:31;;;;;;;6.40;3.30;;;11.60;99.90;;;;;;5023864;28;20195;-79
2022/08/29 03:39:57;;;;;;;5.60;2.90;;;11.60;99.90;;;;;;5023061;28;20195;-79
2022/08/29 03:42:22;;;;;;;5.23;2.97;;;11.60;99.90;;;;;;5023325;28;20638;-80
2022/08/29 03:44:48;;;;;;;5.93;2.77;;;11.80;99.90;;;;;;5027379;28;20225;-81
2022/08/29 03:47:13;;;;;;;8.47;3.07;;;11.70;99.90;;;;;;5027891;28;20213;-81
2022/08/29 03:49:39;;;;;;;11.07;3.20;;;11.50;99.90;;;;;;5028560;28;20179;-80
2022/08/29 03:52:08;;;;;;;4.33;2.83;;;11.40;99.90;;;;;;5028269;28;20204;-80
2022/08/29 03:54:34;;;;;;;5.57;3.17;;;11.50;99.90;;;;;;5029032;28;20177;-80
2022/08/29 03:57:00;;;;;;;7.33;3.13;;;11.40;99.90;;;;;;5027697;28;20197;-80
2022/08/29 03:59:26;;;;;;;9.73;3.60;;;11.40;99.90;;;;;;5028902;28;20189;-80
2022/08/29 04:01:51;;;;;;;6.10;3.30;;;11.30;99.90;;;;;;5046553;28;20182;-80
2022/08/29 04:07:05;;;;;;;7.67;3.43;;;11.70;99.90;;;;;;5047660;28;20572;-81
2022/08/29 04:09:31;;;;;;;7.67;3.73;;;11.40;99.90;;;;;;5029400;28;20270;-80
2022/08/29 04:11:56;;;;;;;9.33;3.23;;;11.60;99.90;;;;;;5030084;28;20243;-79
2022/08/29 04:14:22;;;;;;;4.93;3.20;;;11.70;99.90;;;;;;5030296;28;20240;-79
2022/08/29 04:16:48;;;;;;;4.43;2.83;;;11.50;99.90;;;;;;5030373;28;20631;-79
2022/08/29 04:19:15;;;;;;;6.33;3.17;;;11.70;99.90;;;;;;5031577;28;20201;-80
2022/08/29 04:21:41;;;;;;;8.10;3.43;;;11.80;99.90;;;;;;5030946;28;20183;-82
2022/08/29 04:24:06;;;;;;;8.60;3.17;;;11.60;99.90;;;;;;5031107;28;20226;-80
2022/08/29 04:26:32;;;;;;;8.53;3.70;;;11.50;99.90;;;;;;5031572;28;20275;-80
2022/08/29 04:28:58;;;;;;;8.37;4.00;;;11.50;99.90;;;;;;5030960;28;20245;-80
2022/08/29 04:31:23;;;;;;;9.43;3.73;;;11.40;99.90;;;;;;5030347;28;20266;-79
2022/08/29 04:33:49;;;;;;;13.97;4.20;;;11.50;99.90;;;;;;5027772;28;20629;-81
2022/08/29 04:36:15;;;;;;;11.37;4.40;;;11.60;99.90;;;;;;5027169;28;20652;-81
2022/08/29 04:38:41;;;;;;;9.53;3.80;;;11.60;99.90;;;;;;5024243;28;20183;-82
2022/08/29 04:41:09;;;;;;;9.10;4.03;;;11.60;99.90;;;;;;5021125;28;20541;-79
2022/08/29 04:43:35;;;;;;;12.20;4.23;;;11.40;99.90;;;;;;5021642;28;20188;-78
2022/08/29 04:46:01;;;;;;;11.23;3.50;;;11.50;99.90;;;;;;5022688;28;20713;-78
2022/08/29 04:48:27;;;;;;;8.30;3.43;;;11.60;99.90;;;;;;5023144;28;20189;-78
2022/08/29 04:50:58;;;;;;;15.03;3.93;;;11.40;99.90;;;;;;5041083;28;20200;-79
2022/08/29 04:53:25;;;;;;;9.97;3.30;;;11.40;99.90;;;;;;5023360;28;20180;-78
2022/08/29 04:56:05;;;;;;;6.53;3.50;;;11.50;99.90;;;;;;5022330;28;20205;-77
2022/08/29 04:58:30;;;;;;;10.00;4.00;;;11.80;99.90;;;;;;5022742;28;20261;-80
2022/08/29 05:00:56;;;;;;;10.37;3.90;;;11.60;99.90;;;;;;5022899;28;20218;-78
2022/08/29 05:03:22;;;;;;;7.43;3.87;;;11.50;99.90;;;;;;5023053;28;20185;-78
2022/08/29 05:06:00;;;;;;;9.57;3.60;;;11.70;99.90;;;;;;5023147;28;20184;-81
2022/08/29 05:08:26;;;;;;;6.83;3.73;;;11.70;99.90;;;;;;5023173;28;20275;-81
2022/08/29 05:10:52;;;;;;;9.37;3.97;;;11.70;99.90;;;;;;5022906;28;20197;-80
2022/08/29 05:13:18;;;;;;;8.10;4.30;;;11.70;99.90;;;;;;5022382;28;20185;-78
2022/08/29 05:15:44;;;;;;;9.10;3.87;;;11.60;99.90;;;;;;5021050;28;20227;-80
2022/08/29 05:18:11;;;;;;;9.37;3.70;;;11.80;99.90;;;;;;5022893;28;20221;-79
2022/08/29 05:20:41;;;;;;;9.67;3.90;;;11.90;99.90;;;;;;5023664;28;20664;-79
2022/08/29 05:23:07;;;;;;;10.00;3.93;;;12.00;99.90;;;;;;5022254;28;20185;-81
2022/08/29 05:25:33;;;;;;;9.53;4.50;;;12.00;99.90;;;;;;5022297;28;20185;-80
2022/08/29 05:27:59;;;;;;;9.93;4.60;;;12.10;99.90;;;;;;5022439;28;20182;-81
2022/08/29 05:30:25;;;;;;;12.33;4.67;;;12.30;99.90;;;;;;5021706;28;20205;-80
2022/08/29 05:32:51;;;;;;;16.13;4.43;;;12.30;99.90;;;;;;5022331;28;20177;-79
2022/08/29 05:35:17;;;;;;;43.07;5.97;;;12.50;99.90;;;;;;5022735;28;20185;-80
2022/08/29 05:37:43;;;;;;;38.73;5.60;;;12.70;99.90;;;;;;5022123;28;20190;-78
2022/08/29 05:40:09;;;;;;;25.57;5.03;;;12.80;99.90;;;;;;5021711;28;20180;-78
2022/08/29 05:42:34;;;;;;;25.27;4.73;;;13.00;99.90;;;;;;5021384;28;20236;-79
2022/08/29 05:45:03;;;;;;;16.70;4.07;;;12.90;99.90;;;;;;5021837;28;20201;-79
2022/08/29 05:47:30;;;;;;;19.90;4.50;;;13.10;99.90;;;;;;5021812;28;20252;-79
2022/08/29 05:49:55;;;;;;;13.33;3.60;;;13.30;99.90;;;;;;5021269;28;20666;-78
2022/08/29 05:52:22;;;;;;;10.17;3.80;;;13.40;99.90;;;;;;5022136;28;20188;-80
2022/08/29 05:54:48;;;;;;;13.23;3.50;;;13.50;99.90;;;;;;5022564;28;20181;-80
2022/08/29 05:57:16;;;;;;;10.90;3.70;;;13.90;99.90;;;;;;5020820;28;20658;-81
2022/08/29 05:59:41;;;;;;;11.57;3.50;;;14.00;99.90;;;;;;5021033;28;20183;-81
2022/08/29 06:02:09;;;;;;;8.63;3.77;;;14.10;99.90;;;;;;5020358;28;20178;-80
2022/08/29 06:04:35;;;;;;;13.73;3.60;;;14.00;99.90;;;;;;5021178;28;20169;-81
2022/08/29 06:07:00;;;;;;;17.63;3.77;;;14.30;99.90;;;;;;5020498;28;20196;-78
2022/08/29 06:09:27;;;;;;;8.83;3.90;;;14.50;99.90;;;;;;5022480;28;20174;-79
2022/08/29 06:11:53;;;;;;;7.80;3.83;;;14.70;99.90;;;;;;5022599;28;20769;-79
2022/08/29 06:14:19;;;;;;;18.00;3.80;;;14.70;99.90;;;;;;5022817;28;20206;-79
2022/08/29 06:16:44;;;;;;;10.53;4.00;;;14.90;99.90;;;;;;5022623;28;20194;-81
2022/08/29 06:19:10;;;;;;;8.50;3.90;;;15.00;99.90;;;;;;5022373;28;20170;-80
2022/08/29 06:21:36;;;;;;;12.77;3.97;;;15.10;99.90;;;;;;5020859;28;20520;-78
2022/08/29 06:24:03;;;;;;;15.50;4.40;;;15.10;99.90;;;;;;5021792;28;20185;-80
2022/08/29 06:26:30;;;;;;;7.83;3.57;;;15.40;99.90;;;;;;5020825;28;20761;-81
2022/08/29 06:28:56;;;;;;;14.57;3.73;;;15.70;99.90;;;;;;5039917;28;20162;-83
2022/08/29 06:31:27;;;;;;;11.83;3.73;;;15.50;99.90;;;;;;5022423;28;20194;-81
2022/08/29 06:33:57;;;;;;;13.17;4.07;;;15.80;99.90;;;;;;5022598;28;20176;-82
2022/08/29 06:36:24;;;;;;;12.20;3.73;;;15.80;99.90;;;;;;5019472;28;20197;-79
2022/08/29 06:38:50;;;;;;;12.57;4.20;;;16.00;99.90;;;;;;5018987;28;20177;-81
2022/08/29 06:41:17;;;;;;;12.60;4.10;;;16.00;99.90;;;;;;5021929;28;20182;-82
2022/08/29 06:43:43;;;;;;;18.00;4.40;;;16.30;99.90;;;;;;5022727;28;20657;-82
2022/08/29 06:46:21;;;;;;;15.50;3.87;;;16.30;99.90;;;;;;5021748;28;20206;-82
2022/08/29 06:48:47;;;;;;;15.93;4.70;;;16.30;99.90;;;;;;5021853;28;20181;-79
2022/08/29 06:51:12;;;;;;;12.00;4.10;;;16.60;99.90;;;;;;5022029;28;20194;-83
2022/08/29 06:53:38;;;;;;;10.60;4.37;;;16.50;99.90;;;;;;5023541;28;20228;-83
2022/08/29 06:56:05;;;;;;;9.55;3.55;;;16.70;99.90;;;;;;5023785;28;20194;-81
2022/08/29 06:58:31;;;;;;;9.02;3.80;;;17.00;99.90;;;;;;5025079;28;20177;-81
2022/08/29 07:00:57;;;;;;;13.83;3.93;;;17.00;99.90;;;;;;5023690;28;20178;-81
2022/08/29 07:03:22;;;;;;;13.57;4.10;;;16.90;99.90;;;;;;5024334;28;20188;-80
2022/08/29 07:05:52;;;;;;;9.45;4.13;;;17.20;99.90;;;;;;5023831;28;20209;-84
2022/08/29 07:08:18;;;;;;;19.20;4.15;;;17.50;99.90;;;;;;5022544;28;20216;-83
2022/08/29 07:10:44;;;;;;;19.20;3.92;;;17.50;99.90;;;;;;5020298;28;20591;-82
2022/08/29 07:13:10;;;;;;;20.17;4.63;;;17.20;99.90;;;;;;5020805;28;20709;-83
2022/08/29 07:15:36;;;;;;;11.63;4.10;;;17.80;99.90;;;;;;5019264;28;20178;-81
2022/08/29 07:18:02;;;;;;;13.35;4.00;;;17.30;99.90;;;;;;5018841;28;20309;-80
2022/08/29 07:20:27;;;;;;;13.35;4.45;;;17.70;99.90;;;;;;5036509;28;20178;-80
2022/08/29 07:22:54;;;;;;;12.35;3.60;;;17.80;99.90;;;;;;5019229;28;20185;-79
2022/08/29 07:25:20;;;;;;;13.90;3.75;;;17.80;99.90;;;;;;5019563;28;20177;-78
2022/08/29 07:27:46;;;;;;;9.40;3.55;;;17.90;99.90;;;;;;5018684;28;20204;-80
2022/08/29 07:30:15;;;;;;;12.25;3.65;;;17.60;99.90;;;;;;5018535;28;20224;-79
2022/08/29 07:32:43;;;;;;;10.15;3.58;;;17.30;99.90;;;;;;5019060;28;20174;-81
2022/08/29 07:35:10;;;;;;;9.55;3.25;;;17.80;99.90;;;;;;5018296;28;20238;-81
2022/08/29 07:37:36;;;;;;;9.15;4.25;;;17.80;99.90;;;;;;5017253;28;20629;-80
2022/08/29 07:40:02;;;;;;;7.82;3.40;;;18.00;99.90;;;;;;5016125;28;20269;-80
2022/08/29 07:42:27;;;;;;;11.93;3.45;;;18.20;99.90;;;;;;5019083;28;20638;-80
2022/08/29 07:44:53;;;;;;;7.57;3.30;;;18.30;99.90;;;;;;5017343;28;20185;-80
2022/08/29 07:47:19;;;;;;;10.55;3.92;;;18.70;99.90;;;;;;5029832;23;20248;-81
2022/08/29 07:49:45;;;;;;;14.57;3.95;;;18.90;99.90;;;;;;5035244;28;20169;-80
2022/08/29 07:52:10;;;;;;;10.43;3.45;;;19.00;99.90;;;;;;5015032;28;20230;-80
2022/08/29 07:54:36;;;;;;;13.23;3.13;;;19.50;99.90;;;;;;5017244;28;20588;-81
2022/08/29 07:57:02;;;;;;;7.15;3.17;;;19.80;99.90;;;;;;5034114;28;20193;-81
2022/08/29 07:59:30;;;;;;;10.10;3.20;;;20.20;99.90;;;;;;5016387;28;20574;-77
2022/08/29 08:01:55;;;;;;;10.23;3.20;;;20.80;99.90;;;;;;5032687;28;20180;-78
2022/08/29 08:04:20;;;;;;;9.32;3.33;;;20.60;99.90;;;;;;5033314;28;20174;-77
2022/08/29 08:06:47;;;;;;;11.25;3.83;;;20.20;99.90;;;;;;5034495;28;20597;-77
2022/08/29 08:09:15;;;;;;;13.15;3.53;;;19.90;99.90;;;;;;5032529;28;20198;-78
2022/08/29 08:11:41;;;;;;;5.22;2.78;;;20.00;99.90;;;;;;5031685;28;20204;-77
2022/08/29 08:14:07;;;;;;;10.82;3.35;;;19.80;99.90;;;;;;5031710;28;20249;-77
2022/08/29 08:16:33;;;;;;;8.40;3.45;;;20.00;99.90;;;;;;5013798;28;20705;-77
2022/08/29 08:18:59;;;;;;;10.63;3.67;;;20.30;99.90;;;;;;5031450;28;20162;-76
2022/08/29 08:21:25;;;;;;;8.52;2.80;;;20.80;99.90;;;;;;5031219;28;20174;-77
2022/08/29 08:23:51;;;;;;;11.73;3.40;;;21.50;99.90;;;;;;5031388;28;20177;-77
2022/08/29 08:26:16;;;;;;;6.60;3.25;;;21.60;99.10;;;;;;5031957;28;20190;-77
2022/08/29 08:28:42;;;;;;;6.45;3.13;;;21.60;98.80;;;;;;5013503;28;20557;-77
2022/08/29 08:31:10;;;;;;;6.72;3.28;;;21.80;97.80;;;;;;5017606;28;20248;-78
2022/08/29 08:33:37;;;;;;;10.20;3.05;;;21.60;98.80;;;;;;5017392;28;20170;-77
2022/08/29 08:36:11;;;;;;;7.75;2.92;;;22.00;97.70;;;;;;5017330;28;20727;-77
2022/08/29 08:38:36;;;;;;;10.18;3.15;;;22.30;97.60;;;;;;5017364;28;20201;-76
2022/08/29 08:41:11;;;;;;;7.22;3.05;;;22.00;97.50;;;;;;5034883;28;20174;-78
2022/08/29 08:43:47;;;;;;;10.75;3.20;;;21.70;97.60;;;;;;5017197;28;20650;-77
2022/08/29 08:46:13;;;;;;;9.50;3.30;;;21.60;98.20;;;;;;5034700;28;20371;-78
2022/08/29 08:48:39;;;;;;;5.13;3.17;;;21.40;98.40;;;;;;5034787;28;20276;-77
2022/08/29 08:51:13;;;;;;;6.20;2.90;;;21.50;98.20;;;;;;5034434;28;20580;-77
2022/08/29 08:53:45;;;;;;;9.18;3.15;;;21.30;98.50;;;;;;5035105;28;20197;-77
2022/08/29 08:56:29;;;;;;;5.40;2.55;;;21.00;98.60;;;;;;5034812;28;20189;-78
2022/08/29 08:59:04;;;;;;;5.65;2.60;;;20.70;98.90;;;;;;5035087;28;20167;-78
2022/08/29 09:01:55;;;;;;;5.95;2.35;;;21.00;98.30;;;;;;5016861;28;20173;-77
2022/08/29 09:04:36;;;;;;;9.13;2.72;;;20.90;98.80;;;;;;4998238;28;20194;-80
2022/08/29 09:07:35;;;;;;;6.25;2.55;;;21.10;98.30;;;;;;5034700;28;20193;-79
2022/08/29 09:10:32;;;;;;;10.90;3.10;;;21.10;98.20;;;;;;5031424;28;20552;-79
2022/08/29 09:13:20;;;;;;;10.23;2.72;;;21.00;98.00;;;;;;5034381;28;20182;-75
2022/08/29 09:15:49;;;;;;;5.53;2.72;;;21.10;99.00;;;;;;5038586;28;20182;-76
2022/08/29 09:18:29;;;;;;;8.13;2.90;;;21.30;98.00;;;;;;5037008;28;20573;-78
2022/08/29 09:20:55;;;;;;;9.52;2.90;;;21.10;98.40;;;;;;5036196;28;20638;-78
2022/08/29 09:23:30;;;;;;;8.27;2.78;;;20.90;98.90;;;;;;5036457;28;20231;-78
2022/08/29 09:25:55;;;;;;;5.03;2.70;;;20.80;99.00;;;;;;5018619;28;20604;-78
2022/08/29 09:28:21;;;;;;;6.57;2.78;;;20.80;99.00;;;;;;5019128;28;20177;-77
2022/08/29 09:31:32;;;;;;;5.72;2.50;;;21.10;99.40;;;;;;5035812;28;20189;-77
2022/08/29 09:34:32;;;;;;;4.97;2.55;;;20.70;98.70;;;;;;5025671;28;20235;-81
2022/08/29 09:36:57;;;;;;;5.43;2.50;;;21.00;99.00;;;;;;5049974;28;20224;-79
2022/08/29 09:39:28;;;;;;;6.90;2.40;;;21.90;98.50;;;;;;5051906;28;20162;-79
2022/08/29 09:42:13;;;;;;;7.00;2.90;;;22.80;97.20;;;;;;5032653;28;20178;-79
2022/08/29 09:44:40;;;;;;;7.32;3.00;;;22.80;97.30;;;;;;5050837;28;20198;-79
2022/08/29 09:47:08;;;;;;;7.07;2.90;;;22.60;97.30;;;;;;5049990;28;20293;-80
2022/08/29 09:49:36;;;;;;;7.93;2.70;;;22.70;97.70;;;;;;5052181;28;20174;-79
2022/08/29 09:52:14;;;;;;;6.32;2.80;;;22.60;97.40;;;;;;5031382;28;20194;-77
2022/08/29 09:54:41;;;;;;;6.20;2.38;;;22.90;96.80;;;;;;5051151;28;20166;-80
2022/08/29 09:57:07;;;;;;;5.85;2.90;;;23.10;97.00;;;;;;5034439;28;20198;-79
2022/08/29 09:59:36;;;;;;;6.00;2.72;;;23.20;97.50;;;;;;5049752;28;20185;-79
2022/08/29 10:02:15;;;;;;;8.07;2.80;;;23.50;95.70;;;;;;5047882;28;20201;-81
2022/08/29 10:04:43;;;;;;;9.93;2.70;;;23.70;96.70;;;;;;5047648;28;20229;-79
2022/08/29 10:07:15;;;;;;;5.40;2.60;;;23.40;96.30;;;;;;5031270;28;20736;-80
2022/08/29 10:09:56;;;;;;;4.90;2.67;;;23.50;96.30;;;;;;5049491;28;20192;-80
2022/08/29 10:12:48;;;;;;;6.25;2.30;;;23.40;96.20;;;;;;5052121;28;20344;-80
2022/08/29 10:15:41;;;;;;;6.32;2.20;;;23.50;96.30;;;;;;5043394;28;20224;-80
2022/08/29 10:18:22;;;;;;;5.47;2.40;;;22.80;96.40;;;;;;5049929;28;20158;-81
2022/08/29 10:21:06;;;;;;;5.75;2.25;;;23.30;96.90;;;;;;5031242;28;20209;-80
2022/08/29 10:23:47;;;;;;;4.40;2.30;;;23.30;96.40;;;;;;5049034;28;20162;-78
2022/08/29 10:26:38;;;;;;;4.55;2.22;;;23.50;96.40;;;;;;5031691;28;20201;-80
2022/08/29 10:29:09;;;;;;;7.00;2.35;;;23.60;96.30;;;;;;5033032;28;20170;-79
2022/08/29 10:31:43;;;;;;;6.30;2.53;;;23.90;96.00;;;;;;5049755;28;20213;-78
2022/08/29 10:34:14;;;;;;;4.32;2.45;;;24.10;95.80;;;;;;5049352;28;20167;-79
2022/08/29 10:36:45;;;;;;;5.82;2.38;;;23.60;95.80;;;;;;5048336;28;20280;-79
2022/08/29 10:39:34;;;;;;;6.35;2.63;;;23.30;96.20;;;;;;5049006;28;20234;-78
2022/08/29 10:42:14;;;;;;;6.82;2.55;;;23.90;96.00;;;;;;5048599;28;20181;-79
2022/08/29 10:45:09;;;;;;;10.27;2.55;;;24.00;95.40;;;;;;5048689;28;20164;-79
2022/08/29 10:47:49;;;;;;;7.65;2.75;;;24.10;95.80;;;;;;5049620;28;20209;-79
2022/08/29 10:50:27;;;;;;;7.40;2.35;;;23.90;96.60;;;;;;5031536;28;20184;-79
2022/08/29 10:53:17;;;;;;;7.30;2.40;;;23.30;96.00;;;;;;5047843;28;20170;-78
2022/08/29 10:55:54;;;;;;;5.47;2.70;;;24.20;95.70;;;;;;5048152;28;20190;-79
2022/08/29 10:58:51;;;;;;;3.65;2.08;;;24.20;95.40;;;;;;5048900;28;20162;-79
2022/08/29 11:01:35;;;;;;;3.85;2.40;;;24.30;95.30;;;;;;5048946;28;20216;-79
2022/08/29 11:04:16;;;;;;;8.32;2.92;;;24.20;95.90;;;;;;5029405;28;20185;-78
2022/08/29 11:06:54;;;;;;;6.93;2.53;;;24.80;95.10;;;;;;5050207;28;20200;-78
2022/08/29 11:09:42;;;;;;;4.32;2.40;;;24.40;94.60;;;;;;5053022;28;20202;-80
2022/08/29 11:12:26;;;;;;;8.23;2.60;;;23.60;95.40;;;;;;5051505;28;20198;-81
2022/08/29 11:15:02;;;;;;;10.57;2.65;;;22.90;96.10;;;;;;5050823;28;20204;-80
2022/08/29 11:17:33;;;;;;;6.22;2.50;;;23.70;95.30;;;;;;5033365;28;20228;-80
2022/08/29 11:20:16;;;;;;;5.88;2.80;;;23.60;95.50;;;;;;5052174;28;20227;-81
2022/08/29 11:23:07;;;;;;;8.52;2.78;;;23.90;95.30;;;;;;5034698;28;20185;-79
2022/08/29 11:25:34;;;;;;;7.90;2.50;;;24.40;94.50;;;;;;5032408;28;20688;-79
2022/08/29 11:28:34;;;;;;;8.50;2.42;;;24.10;95.00;;;;;;5051193;28;20174;-80
2022/08/29 11:31:22;;;;;;;9.73;2.40;;;23.90;95.70;;;;;;5031726;28;20202;-78
2022/08/29 11:34:20;;;;;;;5.15;2.25;;;24.70;94.60;;;;;;5051413;28;20233;-80
2022/08/29 11:37:14;;;;;;;8.10;2.20;;;25.30;94.30;;;;;;5043365;28;20362;-81
2022/08/29 11:39:55;;;;;;;3.08;2.08;;;24.60;95.00;;;;;;5051631;28;20170;-80
2022/08/29 11:42:27;;;;;;;8.40;2.45;;;24.60;94.40;;;;;;5051173;28;20238;-81
2022/08/29 11:44:56;;;;;;;9.00;3.00;;;23.80;94.90;;;;;;5051723;28;20162;-80
2022/08/29 11:47:30;;;;;;;7.78;2.55;;;23.70;94.70;;;;;;5049721;28;20190;-80
2022/08/29 11:50:04;;;;;;;5.15;2.30;;;23.40;95.90;;;;;;5050909;28;20250;-77
2022/08/29 11:52:30;;;;;;;3.35;2.33;;;24.10;94.90;;;;;;5033251;28;20198;-81
2022/08/29 11:54:58;;;;;;;3.53;1.98;;;25.00;94.20;;;;;;5032697;28;20655;-81
2022/08/29 11:57:30;;;;;;;6.32;2.40;;;24.70;94.10;;;;;;5050161;28;20249;-79
2022/08/29 12:00:00;;;;;;;8.07;2.30;;;24.60;94.20;;;;;;5027981;28;20185;-79
2022/08/29 12:02:29;;;;;;;6.87;2.30;;;24.90;93.90;;;;;;5044905;28;20406;-80
2022/08/29 12:04:59;;;;;;;5.50;2.20;;;24.50;94.40;;;;;;5046954;28;20435;-78
2022/08/29 12:07:46;;;;;;;6.32;2.38;;;24.10;94.90;;;;;;5048387;28;20177;-78
2022/08/29 12:10:49;;;;;;;6.90;2.30;;;24.10;95.30;;;;;;5029153;28;20174;-79
2022/08/29 12:13:51;;;;;;;6.22;2.55;;;24.20;95.50;;;;;;5045459;28;20161;-78
2022/08/29 12:16:23;;;;;;;4.85;2.15;;;24.30;95.20;;;;;;5028739;28;20193;-79
2022/08/29 12:18:51;;;;;;;7.20;2.58;;;24.00;95.30;;;;;;5046276;28;20193;-79
2022/08/29 12:21:33;;;;;;;9.60;2.60;;;24.20;95.20;;;;;;5047410;28;20230;-80
2022/08/29 12:23:59;;;;;;;3.30;1.85;;;24.80;95.00;;;;;;5047630;28;20174;-80
2022/08/29 12:26:41;;;;;;;5.03;2.13;;;24.80;94.40;;;;;;5029714;28;20394;-79
2022/08/29 12:29:16;;;;;;;8.73;3.03;;;24.80;94.60;;;;;;5026478;28;20201;-80
2022/08/29 12:32:16;;;;;;;3.90;2.28;;;23.90;94.80;;;;;;5045610;28;20197;-80
2022/08/29 12:35:29;;;;;;;4.50;2.30;;;24.10;94.40;;;;;;5025771;28;20170;-79
2022/08/29 12:38:13;;;;;;;5.00;1.92;;;24.10;94.90;;;;;;5002087;28;20685;-79
2022/08/29 12:40:48;;;;;;;5.50;2.20;;;23.90;94.80;;;;;;5027235;28;20216;-79
2022/08/29 12:43:26;;;;;;;3.92;2.15;;;23.80;94.80;;;;;;5047890;28;20166;-79
2022/08/29 12:45:52;;;;;;;4.82;2.03;;;23.80;95.30;;;;;;5047765;28;20252;-78
2022/08/29 12:48:45;;;;;;;4.10;1.80;;;23.80;95.30;;;;;;5046206;28;20224;-80
2022/08/29 12:51:31;;;;;;;3.05;1.98;;;24.10;95.00;;;;;;5024783;28;20213;-79
2022/08/29 12:53:57;;;;;;;5.45;2.00;;;23.50;95.30;;;;;;5044866;28;20226;-80
2022/08/29 12:56:24;;;;;;;5.32;2.30;;;23.20;95.00;;;;;;5046998;28;20198;-80
2022/08/29 12:59:02;;;;;;;5.15;2.30;;;23.60;95.50;;;;;;5025662;28;20170;-78
2022/08/29 13:01:29;;;;;;;2.80;2.10;;;23.60;94.50;;;;;;5044131;28;20174;-78
2022/08/29 13:03:58;;;;;;;4.60;2.33;;;23.50;95.30;;;;;;5022733;28;20174;-79
2022/08/29 13:06:24;;;;;;;8.70;2.45;;;23.60;94.70;;;;;;5035393;28;20229;-78